sensor_id;sensor_type;location;lat;lon;timestamp;P1;durP1;ratioP1;P2;durP2;ratioP2
73632;SDS011;61927;50.080;14.418;2024-02-16T00:00:23;25.75;;;14.98;;
73632;SDS011;61927;50.080;14.418;2024-02-16T00:03:10;29.15;;;14.90;;
73632;SDS011;61927;50.080;14.418;2024-02-16T00:05:35;31.05;;;14.55;;
73632;SDS011;61927;50.080;14.418;2024-02-16T00:08:02;33.63;;;18.58;;
73632;SDS011;61927;50.080;14.418;2024-02-16T00:10:28;34.03;;;15.65;;
73632;SDS011;61927;50.080;14.418;2024-02-16T00:12:54;26.13;;;15.23;;
73632;SDS011;61927;50.080;14.418;2024-02-16T00:15:19;30.02;;;15.23;;
73632;SDS011;61927;50.080;14.418;2024-02-16T00:17:45;37.55;;;15.25;;
73632;SDS011;61927;50.080;14.418;2024-02-16T00:20:11;33.08;;;16.55;;
73632;SDS011;61927;50.080;14.418;2024-02-16T00:22:40;30.50;;;16.25;;
73632;SDS011;61927;50.080;14.418;2024-02-16T00:25:06;40.20;;;17.30;;
73632;SDS011;61927;50.080;14.418;2024-02-16T00:27:32;25.17;;;14.95;;
73632;SDS011;61927;50.080;14.418;2024-02-16T00:29:57;30.95;;;15.88;;
73632;SDS011;61927;50.080;14.418;2024-02-16T00:32:23;29.38;;;14.38;;
73632;SDS011;61927;50.080;14.418;2024-02-16T00:34:51;28.67;;;15.57;;
73632;SDS011;61927;50.080;14.418;2024-02-16T00:37:19;27.90;;;15.13;;
73632;SDS011;61927;50.080;14.418;2024-02-16T00:39:44;34.42;;;15.98;;
73632;SDS011;61927;50.080;14.418;2024-02-16T00:42:10;38.70;;;15.65;;
73632;SDS011;61927;50.080;14.418;2024-02-16T00:44:36;39.67;;;16.10;;
73632;SDS011;61927;50.080;14.418;2024-02-16T00:47:02;31.40;;;15.93;;
73632;SDS011;61927;50.080;14.418;2024-02-16T00:49:31;40.33;;;15.98;;
73632;SDS011;61927;50.080;14.418;2024-02-16T00:51:57;28.90;;;15.15;;
73632;SDS011;61927;50.080;14.418;2024-02-16T00:54:22;27.60;;;15.55;;
73632;SDS011;61927;50.080;14.418;2024-02-16T00:56:48;24.02;;;15.20;;
73632;SDS011;61927;50.080;14.418;2024-02-16T00:59:13;29.73;;;15.20;;
73632;SDS011;61927;50.080;14.418;2024-02-16T01:01:39;25.23;;;15.30;;
73632;SDS011;61927;50.080;14.418;2024-02-16T01:04:04;26.05;;;15.98;;
73632;SDS011;61927;50.080;14.418;2024-02-16T01:06:32;29.60;;;15.60;;
73632;SDS011;61927;50.080;14.418;2024-02-16T01:08:58;23.58;;;13.90;;
73632;SDS011;61927;50.080;14.418;2024-02-16T01:11:23;24.05;;;14.65;;
73632;SDS011;61927;50.080;14.418;2024-02-16T01:13:49;25.55;;;14.98;;
73632;SDS011;61927;50.080;14.418;2024-02-16T01:16:15;24.42;;;14.43;;
73632;SDS011;61927;50.080;14.418;2024-02-16T01:18:42;27.00;;;15.25;;
73632;SDS011;61927;50.080;14.418;2024-02-16T01:21:10;24.80;;;15.23;;
73632;SDS011;61927;50.080;14.418;2024-02-16T01:23:36;26.50;;;15.48;;
73632;SDS011;61927;50.080;14.418;2024-02-16T01:26:02;24.52;;;14.27;;
73632;SDS011;61927;50.080;14.418;2024-02-16T01:28:27;21.08;;;14.02;;
73632;SDS011;61927;50.080;14.418;2024-02-16T01:30:53;24.48;;;14.50;;
73632;SDS011;61927;50.080;14.418;2024-02-16T01:33:21;23.33;;;14.50;;
73632;SDS011;61927;50.080;14.418;2024-02-16T01:35:47;23.60;;;14.75;;
73632;SDS011;61927;50.080;14.418;2024-02-16T01:38:13;21.15;;;14.07;;
73632;SDS011;61927;50.080;14.418;2024-02-16T01:40:39;22.02;;;13.95;;
73632;SDS011;61927;50.080;14.418;2024-02-16T01:43:04;22.23;;;14.23;;
73632;SDS011;61927;50.080;14.418;2024-02-16T01:45:30;21.40;;;14.25;;
73632;SDS011;61927;50.080;14.418;2024-02-16T01:47:56;21.23;;;13.90;;
73632;SDS011;61927;50.080;14.418;2024-02-16T01:50:21;24.58;;;14.73;;
73632;SDS011;61927;50.080;14.418;2024-02-16T01:52:47;22.63;;;15.10;;
73632;SDS011;61927;50.080;14.418;2024-02-16T01:55:14;25.95;;;15.43;;
73632;SDS011;61927;50.080;14.418;2024-02-16T01:57:45;23.27;;;14.77;;
73632;SDS011;61927;50.080;14.418;2024-02-16T02:00:12;23.88;;;14.63;;
73632;SDS011;61927;50.080;14.418;2024-02-16T02:02:40;29.17;;;14.73;;
73632;SDS011;61927;50.080;14.418;2024-02-16T02:05:06;22.45;;;14.20;;
73632;SDS011;61927;50.080;14.418;2024-02-16T02:07:32;22.65;;;14.18;;
73632;SDS011;61927;50.080;14.418;2024-02-16T02:09:58;21.33;;;13.52;;
73632;SDS011;61927;50.080;14.418;2024-02-16T02:12:24;22.58;;;14.43;;
73632;SDS011;61927;50.080;14.418;2024-02-16T02:14:50;21.38;;;14.90;;
73632;SDS011;61927;50.080;14.418;2024-02-16T02:17:16;25.20;;;15.15;;
73632;SDS011;61927;50.080;14.418;2024-02-16T02:19:42;23.27;;;15.02;;
73632;SDS011;61927;50.080;14.418;2024-02-16T02:22:20;23.52;;;13.98;;
73632;SDS011;61927;50.080;14.418;2024-02-16T02:24:46;22.17;;;14.15;;
73632;SDS011;61927;50.080;14.418;2024-02-16T02:27:13;25.17;;;14.15;;
73632;SDS011;61927;50.080;14.418;2024-02-16T02:29:40;23.85;;;14.27;;
73632;SDS011;61927;50.080;14.418;2024-02-16T02:32:06;25.67;;;14.63;;
73632;SDS011;61927;50.080;14.418;2024-02-16T02:34:32;23.60;;;13.93;;
73632;SDS011;61927;50.080;14.418;2024-02-16T02:36:58;22.98;;;13.93;;
73632;SDS011;61927;50.080;14.418;2024-02-16T02:39:24;21.38;;;13.57;;
73632;SDS011;61927;50.080;14.418;2024-02-16T02:41:50;21.77;;;12.88;;
73632;SDS011;61927;50.080;14.418;2024-02-16T02:44:16;18.08;;;13.43;;
73632;SDS011;61927;50.080;14.418;2024-02-16T02:46:42;20.30;;;11.98;;
73632;SDS011;61927;50.080;14.418;2024-02-16T02:49:08;22.08;;;13.25;;
73632;SDS011;61927;50.080;14.418;2024-02-16T02:51:33;18.63;;;12.73;;
73632;SDS011;61927;50.080;14.418;2024-02-16T02:53:59;20.02;;;13.60;;
73632;SDS011;61927;50.080;14.418;2024-02-16T02:56:24;22.33;;;13.80;;
73632;SDS011;61927;50.080;14.418;2024-02-16T02:58:50;27.55;;;14.80;;
73632;SDS011;61927;50.080;14.418;2024-02-16T03:01:15;26.92;;;14.65;;
73632;SDS011;61927;50.080;14.418;2024-02-16T03:03:41;22.30;;;14.48;;
73632;SDS011;61927;50.080;14.418;2024-02-16T03:06:08;23.00;;;14.27;;
73632;SDS011;61927;50.080;14.418;2024-02-16T03:08:34;22.20;;;13.93;;
73632;SDS011;61927;50.080;14.418;2024-02-16T03:11:00;20.80;;;13.75;;
73632;SDS011;61927;50.080;14.418;2024-02-16T03:13:26;19.10;;;12.95;;
73632;SDS011;61927;50.080;14.418;2024-02-16T03:15:52;20.73;;;12.60;;
73632;SDS011;61927;50.080;14.418;2024-02-16T03:18:18;19.85;;;13.48;;
73632;SDS011;61927;50.080;14.418;2024-02-16T03:20:44;20.98;;;12.43;;
73632;SDS011;61927;50.080;14.418;2024-02-16T03:23:13;19.70;;;12.32;;
73632;SDS011;61927;50.080;14.418;2024-02-16T03:25:39;19.75;;;12.43;;
73632;SDS011;61927;50.080;14.418;2024-02-16T03:28:05;17.83;;;12.77;;
73632;SDS011;61927;50.080;14.418;2024-02-16T03:30:32;18.70;;;12.38;;
73632;SDS011;61927;50.080;14.418;2024-02-16T03:32:59;18.40;;;12.48;;
73632;SDS011;61927;50.080;14.418;2024-02-16T03:35:24;18.30;;;12.70;;
73632;SDS011;61927;50.080;14.418;2024-02-16T03:37:51;18.67;;;12.60;;
73632;SDS011;61927;50.080;14.418;2024-02-16T03:40:16;19.27;;;12.05;;
73632;SDS011;61927;50.080;14.418;2024-02-16T03:42:42;19.92;;;12.68;;
73632;SDS011;61927;50.080;14.418;2024-02-16T03:45:08;17.70;;;12.30;;
73632;SDS011;61927;50.080;14.418;2024-02-16T03:47:34;17.25;;;12.90;;
73632;SDS011;61927;50.080;14.418;2024-02-16T03:49:59;20.70;;;12.55;;
73632;SDS011;61927;50.080;14.418;2024-02-16T03:52:25;20.77;;;12.77;;
73632;SDS011;61927;50.080;14.418;2024-02-16T03:54:50;27.65;;;13.38;;
73632;SDS011;61927;50.080;14.418;2024-02-16T03:57:16;27.55;;;13.63;;
73632;SDS011;61927;50.080;14.418;2024-02-16T03:59:42;20.67;;;11.98;;
73632;SDS011;61927;50.080;14.418;2024-02-16T04:02:11;22.65;;;12.80;;
73632;SDS011;61927;50.080;14.418;2024-02-16T04:04:41;19.90;;;12.23;;
73632;SDS011;61927;50.080;14.418;2024-02-16T04:07:07;18.27;;;12.98;;
73632;SDS011;61927;50.080;14.418;2024-02-16T04:09:33;24.80;;;12.57;;
73632;SDS011;61927;50.080;14.418;2024-02-16T04:12:00;24.42;;;12.68;;
73632;SDS011;61927;50.080;14.418;2024-02-16T04:14:26;17.60;;;12.35;;
73632;SDS011;61927;50.080;14.418;2024-02-16T04:16:52;18.40;;;12.80;;
73632;SDS011;61927;50.080;14.418;2024-02-16T04:19:18;20.85;;;13.25;;
73632;SDS011;61927;50.080;14.418;2024-02-16T04:21:43;19.58;;;12.52;;
73632;SDS011;61927;50.080;14.418;2024-02-16T04:24:09;20.67;;;12.43;;
73632;SDS011;61927;50.080;14.418;2024-02-16T04:26:35;20.30;;;11.77;;
73632;SDS011;61927;50.080;14.418;2024-02-16T04:29:00;18.63;;;11.85;;
73632;SDS011;61927;50.080;14.418;2024-02-16T04:31:26;16.60;;;11.25;;
73632;SDS011;61927;50.080;14.418;2024-02-16T04:33:51;25.75;;;12.18;;
73632;SDS011;61927;50.080;14.418;2024-02-16T04:36:18;27.67;;;13.10;;
73632;SDS011;61927;50.080;14.418;2024-02-16T04:38:44;22.75;;;13.88;;
73632;SDS011;61927;50.080;14.418;2024-02-16T04:41:09;21.60;;;14.93;;
73632;SDS011;61927;50.080;14.418;2024-02-16T04:43:35;23.15;;;15.27;;
73632;SDS011;61927;50.080;14.418;2024-02-16T04:46:00;22.95;;;15.00;;
73632;SDS011;61927;50.080;14.418;2024-02-16T04:48:26;25.38;;;16.35;;
73632;SDS011;61927;50.080;14.418;2024-02-16T04:50:52;27.15;;;15.98;;
73632;SDS011;61927;50.080;14.418;2024-02-16T04:53:17;25.77;;;16.38;;
73632;SDS011;61927;50.080;14.418;2024-02-16T04:55:43;28.38;;;16.48;;
73632;SDS011;61927;50.080;14.418;2024-02-16T04:58:08;26.35;;;15.57;;
73632;SDS011;61927;50.080;14.418;2024-02-16T05:00:35;32.75;;;16.17;;
73632;SDS011;61927;50.080;14.418;2024-02-16T05:03:04;28.45;;;14.93;;
73632;SDS011;61927;50.080;14.418;2024-02-16T05:05:30;24.92;;;14.98;;
73632;SDS011;61927;50.080;14.418;2024-02-16T05:07:58;27.48;;;16.13;;
73632;SDS011;61927;50.080;14.418;2024-02-16T05:10:24;23.45;;;14.77;;
73632;SDS011;61927;50.080;14.418;2024-02-16T05:12:49;35.20;;;17.35;;
73632;SDS011;61927;50.080;14.418;2024-02-16T05:15:16;21.25;;;14.65;;
73632;SDS011;61927;50.080;14.418;2024-02-16T05:17:42;23.77;;;15.38;;
73632;SDS011;61927;50.080;14.418;2024-02-16T05:20:12;23.55;;;14.68;;
73632;SDS011;61927;50.080;14.418;2024-02-16T05:22:44;22.42;;;14.98;;
73632;SDS011;61927;50.080;14.418;2024-02-16T05:25:11;25.65;;;14.18;;
73632;SDS011;61927;50.080;14.418;2024-02-16T05:27:40;28.63;;;14.10;;
73632;SDS011;61927;50.080;14.418;2024-02-16T05:30:08;34.72;;;15.63;;
73632;SDS011;61927;50.080;14.418;2024-02-16T05:32:35;35.67;;;19.52;;
73632;SDS011;61927;50.080;14.418;2024-02-16T05:35:05;22.05;;;14.00;;
73632;SDS011;61927;50.080;14.418;2024-02-16T05:37:47;23.80;;;13.52;;
73632;SDS011;61927;50.080;14.418;2024-02-16T05:40:16;22.25;;;13.38;;
73632;SDS011;61927;50.080;14.418;2024-02-16T05:42:56;23.00;;;13.30;;
73632;SDS011;61927;50.080;14.418;2024-02-16T05:45:23;19.63;;;11.82;;
73632;SDS011;61927;50.080;14.418;2024-02-16T05:47:50;25.50;;;13.85;;
73632;SDS011;61927;50.080;14.418;2024-02-16T05:50:16;19.05;;;12.07;;
73632;SDS011;61927;50.080;14.418;2024-02-16T05:52:42;20.20;;;12.25;;
73632;SDS011;61927;50.080;14.418;2024-02-16T05:55:09;24.42;;;12.68;;
73632;SDS011;61927;50.080;14.418;2024-02-16T05:57:36;19.35;;;11.82;;
73632;SDS011;61927;50.080;14.418;2024-02-16T06:00:03;21.63;;;11.95;;
73632;SDS011;61927;50.080;14.418;2024-02-16T06:02:30;19.85;;;11.43;;
73632;SDS011;61927;50.080;14.418;2024-02-16T06:04:57;21.00;;;11.80;;
73632;SDS011;61927;50.080;14.418;2024-02-16T06:07:23;19.85;;;12.27;;
73632;SDS011;61927;50.080;14.418;2024-02-16T06:09:49;21.23;;;11.90;;
73632;SDS011;61927;50.080;14.418;2024-02-16T06:12:15;24.02;;;14.18;;
73632;SDS011;61927;50.080;14.418;2024-02-16T06:14:41;20.80;;;12.05;;
73632;SDS011;61927;50.080;14.418;2024-02-16T06:17:07;20.10;;;11.95;;
73632;SDS011;61927;50.080;14.418;2024-02-16T06:19:34;23.48;;;11.80;;
73632;SDS011;61927;50.080;14.418;2024-02-16T06:22:03;19.80;;;11.88;;
73632;SDS011;61927;50.080;14.418;2024-02-16T06:24:28;22.90;;;12.77;;
73632;SDS011;61927;50.080;14.418;2024-02-16T06:26:54;19.40;;;12.35;;
73632;SDS011;61927;50.080;14.418;2024-02-16T06:29:20;21.98;;;12.95;;
73632;SDS011;61927;50.080;14.418;2024-02-16T06:31:46;19.20;;;12.23;;
73632;SDS011;61927;50.080;14.418;2024-02-16T06:34:13;20.08;;;12.50;;
73632;SDS011;61927;50.080;14.418;2024-02-16T06:36:39;26.20;;;13.23;;
73632;SDS011;61927;50.080;14.418;2024-02-16T06:39:05;19.23;;;12.07;;
73632;SDS011;61927;50.080;14.418;2024-02-16T06:41:31;15.95;;;11.45;;
73632;SDS011;61927;50.080;14.418;2024-02-16T06:43:56;19.77;;;12.23;;
73632;SDS011;61927;50.080;14.418;2024-02-16T06:46:22;23.00;;;14.30;;
73632;SDS011;61927;50.080;14.418;2024-02-16T06:48:48;23.17;;;13.35;;
73632;SDS011;61927;50.080;14.418;2024-02-16T06:51:13;34.65;;;13.05;;
73632;SDS011;61927;50.080;14.418;2024-02-16T06:53:39;27.20;;;13.98;;
73632;SDS011;61927;50.080;14.418;2024-02-16T06:56:04;21.33;;;12.23;;
73632;SDS011;61927;50.080;14.418;2024-02-16T06:58:30;25.55;;;12.50;;
73632;SDS011;61927;50.080;14.418;2024-02-16T07:00:55;25.88;;;13.90;;
73632;SDS011;61927;50.080;14.418;2024-02-16T07:03:23;26.60;;;13.30;;
73632;SDS011;61927;50.080;14.418;2024-02-16T07:05:49;27.52;;;14.57;;
73632;SDS011;61927;50.080;14.418;2024-02-16T07:08:15;21.73;;;13.77;;
73632;SDS011;61927;50.080;14.418;2024-02-16T07:10:40;27.95;;;14.50;;
73632;SDS011;61927;50.080;14.418;2024-02-16T07:13:06;47.95;;;15.00;;
73632;SDS011;61927;50.080;14.418;2024-02-16T07:15:31;32.92;;;14.05;;
73632;SDS011;61927;50.080;14.418;2024-02-16T07:17:57;27.30;;;13.80;;
73632;SDS011;61927;50.080;14.418;2024-02-16T07:20:23;24.75;;;14.50;;
73632;SDS011;61927;50.080;14.418;2024-02-16T07:22:49;27.33;;;15.23;;
73632;SDS011;61927;50.080;14.418;2024-02-16T07:25:16;29.05;;;15.32;;
73632;SDS011;61927;50.080;14.418;2024-02-16T07:27:43;24.42;;;14.40;;
73632;SDS011;61927;50.080;14.418;2024-02-16T07:30:08;24.15;;;13.57;;
73632;SDS011;61927;50.080;14.418;2024-02-16T07:32:36;31.65;;;15.60;;
73632;SDS011;61927;50.080;14.418;2024-02-16T07:35:02;24.48;;;14.18;;
73632;SDS011;61927;50.080;14.418;2024-02-16T07:37:28;30.55;;;15.02;;
73632;SDS011;61927;50.080;14.418;2024-02-16T07:39:54;25.27;;;14.85;;
73632;SDS011;61927;50.080;14.418;2024-02-16T07:42:19;26.80;;;14.55;;
73632;SDS011;61927;50.080;14.418;2024-02-16T07:44:45;31.58;;;14.50;;
73632;SDS011;61927;50.080;14.418;2024-02-16T07:47:12;33.95;;;16.67;;
73632;SDS011;61927;50.080;14.418;2024-02-16T07:49:40;33.03;;;17.40;;
73632;SDS011;61927;50.080;14.418;2024-02-16T07:52:06;32.15;;;18.58;;
73632;SDS011;61927;50.080;14.418;2024-02-16T07:54:32;34.10;;;18.08;;
73632;SDS011;61927;50.080;14.418;2024-02-16T07:56:57;44.08;;;19.13;;
73632;SDS011;61927;50.080;14.418;2024-02-16T07:59:25;34.17;;;18.02;;
73632;SDS011;61927;50.080;14.418;2024-02-16T08:01:50;31.52;;;16.08;;
73632;SDS011;61927;50.080;14.418;2024-02-16T08:04:16;29.33;;;16.48;;
73632;SDS011;61927;50.080;14.418;2024-02-16T08:06:42;33.42;;;17.50;;
73632;SDS011;61927;50.080;14.418;2024-02-16T08:09:08;30.90;;;16.67;;
73632;SDS011;61927;50.080;14.418;2024-02-16T08:11:34;30.75;;;16.52;;
73632;SDS011;61927;50.080;14.418;2024-02-16T08:13:59;55.88;;;24.83;;
73632;SDS011;61927;50.080;14.418;2024-02-16T08:16:28;23.63;;;16.77;;
73632;SDS011;61927;50.080;14.418;2024-02-16T08:18:54;35.00;;;17.15;;
73632;SDS011;61927;50.080;14.418;2024-02-16T08:21:20;34.22;;;17.90;;
73632;SDS011;61927;50.080;14.418;2024-02-16T08:23:46;40.47;;;17.55;;
73632;SDS011;61927;50.080;14.418;2024-02-16T08:26:12;30.58;;;17.83;;
73632;SDS011;61927;50.080;14.418;2024-02-16T08:28:37;35.08;;;20.17;;
73632;SDS011;61927;50.080;14.418;2024-02-16T08:31:04;37.33;;;20.27;;
73632;SDS011;61927;50.080;14.418;2024-02-16T08:33:30;40.10;;;20.65;;
73632;SDS011;61927;50.080;14.418;2024-02-16T08:35:57;35.05;;;19.00;;
73632;SDS011;61927;50.080;14.418;2024-02-16T08:38:22;34.53;;;18.95;;
73632;SDS011;61927;50.080;14.418;2024-02-16T08:40:48;36.90;;;19.48;;
73632;SDS011;61927;50.080;14.418;2024-02-16T08:43:16;36.60;;;19.30;;
73632;SDS011;61927;50.080;14.418;2024-02-16T08:45:42;37.97;;;20.38;;
73632;SDS011;61927;50.080;14.418;2024-02-16T08:48:07;31.20;;;19.00;;
73632;SDS011;61927;50.080;14.418;2024-02-16T08:50:33;38.42;;;18.63;;
73632;SDS011;61927;50.080;14.418;2024-02-16T08:52:59;40.50;;;20.08;;
73632;SDS011;61927;50.080;14.418;2024-02-16T08:55:24;34.08;;;19.30;;
73632;SDS011;61927;50.080;14.418;2024-02-16T08:57:50;35.50;;;19.17;;
73632;SDS011;61927;50.080;14.418;2024-02-16T09:00:15;40.35;;;19.63;;
73632;SDS011;61927;50.080;14.418;2024-02-16T09:02:41;34.25;;;21.98;;
73632;SDS011;61927;50.080;14.418;2024-02-16T09:05:07;49.40;;;21.48;;
73632;SDS011;61927;50.080;14.418;2024-02-16T09:07:36;40.63;;;23.13;;
73632;SDS011;61927;50.080;14.418;2024-02-16T09:10:03;31.23;;;18.75;;
73632;SDS011;61927;50.080;14.418;2024-02-16T09:12:32;37.00;;;20.73;;
73632;SDS011;61927;50.080;14.418;2024-02-16T09:14:57;39.78;;;19.92;;
73632;SDS011;61927;50.080;14.418;2024-02-16T09:17:23;35.28;;;19.52;;
73632;SDS011;61927;50.080;14.418;2024-02-16T09:19:48;30.35;;;18.40;;
73632;SDS011;61927;50.080;14.418;2024-02-16T09:22:14;30.08;;;18.55;;
73632;SDS011;61927;50.080;14.418;2024-02-16T09:24:40;33.88;;;18.80;;
73632;SDS011;61927;50.080;14.418;2024-02-16T09:27:06;46.53;;;20.45;;
73632;SDS011;61927;50.080;14.418;2024-02-16T09:29:32;136.30;;;25.65;;
73632;SDS011;61927;50.080;14.418;2024-02-16T09:31:58;50.40;;;20.48;;
73632;SDS011;61927;50.080;14.418;2024-02-16T09:34:24;63.05;;;20.15;;
73632;SDS011;61927;50.080;14.418;2024-02-16T09:36:49;45.42;;;20.42;;
73632;SDS011;61927;50.080;14.418;2024-02-16T09:39:15;34.65;;;19.58;;
73632;SDS011;61927;50.080;14.418;2024-02-16T09:41:41;33.00;;;18.95;;
73632;SDS011;61927;50.080;14.418;2024-02-16T09:44:08;38.50;;;20.88;;
73632;SDS011;61927;50.080;14.418;2024-02-16T09:46:35;33.47;;;19.17;;
73632;SDS011;61927;50.080;14.418;2024-02-16T09:49:01;38.80;;;18.80;;
73632;SDS011;61927;50.080;14.418;2024-02-16T09:51:28;30.75;;;18.52;;
73632;SDS011;61927;50.080;14.418;2024-02-16T09:53:54;32.38;;;18.58;;
73632;SDS011;61927;50.080;14.418;2024-02-16T09:56:20;33.28;;;19.58;;
73632;SDS011;61927;50.080;14.418;2024-02-16T09:58:47;29.45;;;18.58;;
73632;SDS011;61927;50.080;14.418;2024-02-16T10:01:19;31.20;;;18.25;;
73632;SDS011;61927;50.080;14.418;2024-02-16T10:03:48;50.53;;;20.42;;
73632;SDS011;61927;50.080;14.418;2024-02-16T10:06:15;33.28;;;17.83;;
73632;SDS011;61927;50.080;14.418;2024-02-16T10:08:51;36.17;;;17.92;;
73632;SDS011;61927;50.080;14.418;2024-02-16T10:11:19;42.10;;;17.42;;
73632;SDS011;61927;50.080;14.418;2024-02-16T10:16:28;53.10;;;18.05;;
73632;SDS011;61927;50.080;14.418;2024-02-16T10:18:55;55.53;;;18.63;;
73632;SDS011;61927;50.080;14.418;2024-02-16T10:21:29;33.15;;;17.70;;
73632;SDS011;61927;50.080;14.418;2024-02-16T10:24:11;30.93;;;17.90;;
73632;SDS011;61927;50.080;14.418;2024-02-16T10:26:39;37.15;;;17.92;;
73632;SDS011;61927;50.080;14.418;2024-02-16T10:29:08;36.20;;;17.73;;
73632;SDS011;61927;50.080;14.418;2024-02-16T10:31:35;47.72;;;18.10;;
73632;SDS011;61927;50.080;14.418;2024-02-16T10:34:02;38.13;;;18.67;;
73632;SDS011;61927;50.080;14.418;2024-02-16T10:36:37;26.58;;;16.95;;
73632;SDS011;61927;50.080;14.418;2024-02-16T10:39:05;27.52;;;16.90;;
73632;SDS011;61927;50.080;14.418;2024-02-16T10:41:35;72.07;;;19.08;;
73632;SDS011;61927;50.080;14.418;2024-02-16T10:44:02;42.10;;;17.98;;
73632;SDS011;61927;50.080;14.418;2024-02-16T10:46:32;36.30;;;17.42;;
73632;SDS011;61927;50.080;14.418;2024-02-16T10:48:59;27.58;;;18.25;;
73632;SDS011;61927;50.080;14.418;2024-02-16T10:51:37;26.80;;;17.33;;
73632;SDS011;61927;50.080;14.418;2024-02-16T10:54:08;38.88;;;16.98;;
73632;SDS011;61927;50.080;14.418;2024-02-16T10:56:35;48.22;;;17.17;;
73632;SDS011;61927;50.080;14.418;2024-02-16T10:59:05;29.17;;;17.33;;
73632;SDS011;61927;50.080;14.418;2024-02-16T11:01:33;27.05;;;15.98;;
73632;SDS011;61927;50.080;14.418;2024-02-16T11:04:03;32.63;;;16.67;;
73632;SDS011;61927;50.080;14.418;2024-02-16T11:06:44;23.35;;;17.42;;
73632;SDS011;61927;50.080;14.418;2024-02-16T11:09:11;24.58;;;16.80;;
73632;SDS011;61927;50.080;14.418;2024-02-16T11:11:37;27.52;;;16.38;;
73632;SDS011;61927;50.080;14.418;2024-02-16T11:14:02;26.92;;;17.00;;
73632;SDS011;61927;50.080;14.418;2024-02-16T11:16:29;26.30;;;15.75;;
73632;SDS011;61927;50.080;14.418;2024-02-16T11:18:55;24.00;;;16.65;;
73632;SDS011;61927;50.080;14.418;2024-02-16T11:21:21;26.17;;;16.88;;
73632;SDS011;61927;50.080;14.418;2024-02-16T11:23:47;34.40;;;17.85;;
73632;SDS011;61927;50.080;14.418;2024-02-16T11:26:13;25.70;;;17.25;;
73632;SDS011;61927;50.080;14.418;2024-02-16T11:28:40;40.13;;;17.05;;
73632;SDS011;61927;50.080;14.418;2024-02-16T11:31:07;27.63;;;16.83;;
73632;SDS011;61927;50.080;14.418;2024-02-16T11:33:33;28.00;;;17.20;;
73632;SDS011;61927;50.080;14.418;2024-02-16T11:36:00;27.70;;;16.70;;
73632;SDS011;61927;50.080;14.418;2024-02-16T11:38:27;33.83;;;17.42;;
73632;SDS011;61927;50.080;14.418;2024-02-16T11:40:53;23.58;;;16.17;;
73632;SDS011;61927;50.080;14.418;2024-02-16T11:43:23;27.42;;;17.50;;
73632;SDS011;61927;50.080;14.418;2024-02-16T11:45:49;28.33;;;17.73;;
73632;SDS011;61927;50.080;14.418;2024-02-16T11:48:19;32.72;;;18.13;;
73632;SDS011;61927;50.080;14.418;2024-02-16T11:50:48;30.37;;;17.73;;
73632;SDS011;61927;50.080;14.418;2024-02-16T11:53:16;24.58;;;16.63;;
73632;SDS011;61927;50.080;14.418;2024-02-16T11:55:49;31.10;;;18.13;;
73632;SDS011;61927;50.080;14.418;2024-02-16T11:58:18;34.63;;;19.80;;
73632;SDS011;61927;50.080;14.418;2024-02-16T12:00:45;27.95;;;18.30;;
73632;SDS011;61927;50.080;14.418;2024-02-16T12:03:19;28.38;;;17.35;;
73632;SDS011;61927;50.080;14.418;2024-02-16T12:05:55;35.15;;;22.05;;
73632;SDS011;61927;50.080;14.418;2024-02-16T12:08:22;29.23;;;19.42;;
73632;SDS011;61927;50.080;14.418;2024-02-16T12:10:49;36.97;;;17.52;;
73632;SDS011;61927;50.080;14.418;2024-02-16T12:13:19;32.80;;;18.73;;
73632;SDS011;61927;50.080;14.418;2024-02-16T12:15:46;29.42;;;18.05;;
73632;SDS011;61927;50.080;14.418;2024-02-16T12:21:04;55.38;;;19.73;;
73632;SDS011;61927;50.080;14.418;2024-02-16T12:23:31;63.20;;;19.58;;
73632;SDS011;61927;50.080;14.418;2024-02-16T12:26:01;29.48;;;17.45;;
73632;SDS011;61927;50.080;14.418;2024-02-16T12:28:28;28.13;;;16.90;;
73632;SDS011;61927;50.080;14.418;2024-02-16T12:30:57;32.08;;;16.52;;
73632;SDS011;61927;50.080;14.418;2024-02-16T12:33:23;24.20;;;16.90;;
73632;SDS011;61927;50.080;14.418;2024-02-16T12:35:49;25.63;;;16.45;;
73632;SDS011;61927;50.080;14.418;2024-02-16T12:38:15;28.50;;;17.80;;
73632;SDS011;61927;50.080;14.418;2024-02-16T12:40:45;30.10;;;18.63;;
73632;SDS011;61927;50.080;14.418;2024-02-16T12:43:11;33.40;;;18.35;;
73632;SDS011;61927;50.080;14.418;2024-02-16T12:45:39;25.17;;;17.45;;
73632;SDS011;61927;50.080;14.418;2024-02-16T12:48:05;28.23;;;17.73;;
73632;SDS011;61927;50.080;14.418;2024-02-16T12:50:31;31.65;;;17.40;;
73632;SDS011;61927;50.080;14.418;2024-02-16T12:52:57;23.98;;;16.90;;
73632;SDS011;61927;50.080;14.418;2024-02-16T12:55:23;27.95;;;16.85;;
73632;SDS011;61927;50.080;14.418;2024-02-16T12:57:49;26.70;;;16.98;;
73632;SDS011;61927;50.080;14.418;2024-02-16T13:00:16;29.42;;;18.45;;
73632;SDS011;61927;50.080;14.418;2024-02-16T13:02:43;22.65;;;16.67;;
73632;SDS011;61927;50.080;14.418;2024-02-16T13:05:09;26.58;;;19.23;;
73632;SDS011;61927;50.080;14.418;2024-02-16T13:07:36;37.40;;;26.90;;
73632;SDS011;61927;50.080;14.418;2024-02-16T13:10:05;28.13;;;18.92;;
73632;SDS011;61927;50.080;14.418;2024-02-16T13:12:31;23.90;;;16.58;;
73632;SDS011;61927;50.080;14.418;2024-02-16T13:14:57;22.95;;;16.60;;
73632;SDS011;61927;50.080;14.418;2024-02-16T13:17:23;36.53;;;23.63;;
73632;SDS011;61927;50.080;14.418;2024-02-16T13:19:48;25.67;;;17.50;;
73632;SDS011;61927;50.080;14.418;2024-02-16T13:22:14;22.00;;;16.50;;
73632;SDS011;61927;50.080;14.418;2024-02-16T13:24:40;52.58;;;36.15;;
73632;SDS011;61927;50.080;14.418;2024-02-16T13:27:06;26.15;;;17.08;;
73632;SDS011;61927;50.080;14.418;2024-02-16T13:29:32;26.08;;;15.48;;
73632;SDS011;61927;50.080;14.418;2024-02-16T13:31:58;27.48;;;16.48;;
73632;SDS011;61927;50.080;14.418;2024-02-16T13:34:24;33.65;;;16.77;;
73632;SDS011;61927;50.080;14.418;2024-02-16T13:36:52;38.30;;;18.27;;
73632;SDS011;61927;50.080;14.418;2024-02-16T13:39:18;26.80;;;16.42;;
73632;SDS011;61927;50.080;14.418;2024-02-16T13:44:39;28.60;;;16.98;;
73632;SDS011;61927;50.080;14.418;2024-02-16T13:47:05;24.40;;;15.20;;
73632;SDS011;61927;50.080;14.418;2024-02-16T13:49:42;21.42;;;16.48;;
73632;SDS011;61927;50.080;14.418;2024-02-16T13:52:15;26.50;;;16.88;;
73632;SDS011;61927;50.080;14.418;2024-02-16T13:54:41;36.97;;;20.42;;
73632;SDS011;61927;50.080;14.418;2024-02-16T13:57:07;43.20;;;18.52;;
73632;SDS011;61927;50.080;14.418;2024-02-16T13:59:32;27.92;;;16.85;;
73632;SDS011;61927;50.080;14.418;2024-02-16T14:02:02;38.08;;;22.35;;
73632;SDS011;61927;50.080;14.418;2024-02-16T14:04:28;26.80;;;17.90;;
73632;SDS011;61927;50.080;14.418;2024-02-16T14:06:54;64.75;;;20.85;;
73632;SDS011;61927;50.080;14.418;2024-02-16T14:09:20;102.53;;;21.50;;
73632;SDS011;61927;50.080;14.418;2024-02-16T14:11:45;46.10;;;19.65;;
73632;SDS011;61927;50.080;14.418;2024-02-16T14:14:12;36.13;;;20.73;;